createdAt,value
2017-06-01T00:01:04.701Z,51.50
2017-06-01T00:03:30.827Z,51.40
2017-06-01T00:05:59.261Z,52.10
2017-06-01T00:08:26.119Z,52.20
2017-06-01T00:10:53.374Z,52.30
2017-06-01T00:13:20.199Z,52.40
2017-06-01T00:15:48.520Z,52.40
2017-06-01T00:18:17.350Z,52.60
2017-06-01T00:20:46.165Z,52.60
2017-06-01T00:23:12.971Z,52.60
2017-06-01T00:25:39.847Z,52.90
2017-06-01T00:28:07.812Z,52.80
2017-06-01T00:30:34.095Z,52.80
2017-06-01T00:33:01.056Z,53.10
2017-06-01T00:35:28.043Z,53.20
2017-06-01T00:37:56.503Z,53.30
2017-06-01T00:40:22.660Z,53.40
2017-06-01T00:42:48.758Z,53.30
2017-06-01T00:45:15.609Z,53.60
2017-06-01T00:47:41.865Z,53.60
2017-06-01T00:50:08.681Z,53.70
2017-06-01T00:52:35.485Z,53.80
2017-06-01T00:55:01.654Z,53.90
2017-06-01T00:57:28.496Z,53.90
2017-06-01T00:59:55.266Z,53.90
2017-06-01T01:02:22.034Z,54.00
2017-06-01T01:04:48.844Z,54.10
2017-06-01T01:07:16.039Z,54.10
2017-06-01T01:09:43.028Z,54.30
2017-06-01T01:12:09.805Z,54.40
2017-06-01T01:14:36.208Z,54.30
2017-06-01T01:17:03.086Z,54.70
2017-06-01T01:19:29.946Z,54.70
2017-06-01T01:21:56.602Z,55.20
2017-06-01T01:24:23.527Z,54.70
2017-06-01T01:26:51.853Z,54.70
2017-06-01T01:29:18.778Z,54.70
2017-06-01T01:31:45.619Z,54.70
2017-06-01T01:34:12.470Z,54.70
2017-06-01T01:36:39.224Z,54.80
2017-06-01T01:39:06.000Z,54.80
2017-06-01T01:41:33.064Z,55.50
2017-06-01T01:43:59.855Z,55.00
2017-06-01T01:46:27.127Z,54.90
2017-06-01T01:48:53.556Z,54.80
2017-06-01T01:51:19.834Z,54.90
2017-06-01T01:53:46.841Z,55.00
2017-06-01T01:56:13.285Z,55.00
2017-06-01T01:58:40.080Z,55.00
2017-06-01T02:01:06.718Z,55.00
2017-06-01T02:03:33.008Z,55.00
2017-06-01T02:05:59.911Z,55.10
2017-06-01T02:08:26.693Z,55.00
2017-06-01T02:10:52.786Z,55.00
2017-06-01T02:13:19.641Z,55.20
2017-06-01T02:15:46.803Z,55.20
2017-06-01T02:18:14.871Z,55.20
2017-06-01T02:20:41.969Z,55.10
2017-06-01T02:23:09.057Z,55.20
2017-06-01T02:25:36.648Z,55.10
2017-06-01T02:28:03.747Z,55.10
2017-06-01T02:30:30.973Z,55.10
2017-06-01T02:32:57.141Z,54.80
2017-06-01T02:35:27.785Z,55.10
2017-06-01T02:37:54.620Z,55.10
2017-06-01T02:40:21.939Z,55.00
2017-06-01T02:42:49.488Z,55.00
2017-06-01T02:45:16.278Z,55.00
2017-06-01T02:47:42.600Z,54.90
2017-06-01T02:50:08.602Z,55.00
2017-06-01T02:52:35.573Z,55.10
2017-06-01T02:55:02.192Z,55.00
2017-06-01T02:57:30.694Z,55.10
2017-06-01T02:59:57.698Z,55.10
2017-06-01T03:02:25.057Z,55.40
2017-06-01T03:04:51.327Z,55.30
2017-06-01T03:07:19.058Z,55.60
2017-06-01T03:09:45.985Z,55.60
2017-06-01T03:12:12.126Z,55.70
2017-06-01T03:14:38.922Z,55.70
2017-06-01T03:17:05.960Z,55.70
2017-06-01T03:19:32.881Z,55.60
2017-06-01T03:22:00.691Z,55.70
2017-06-01T03:24:27.506Z,55.70
2017-06-01T03:26:54.463Z,55.90
2017-06-01T03:29:21.752Z,55.80
2017-06-01T03:31:47.924Z,55.90
2017-06-01T03:34:14.037Z,55.90
2017-06-01T03:36:42.192Z,56.00
2017-06-01T03:39:08.659Z,55.90
2017-06-01T03:41:36.266Z,55.90
2017-06-01T03:44:03.242Z,55.90
2017-06-01T03:46:30.914Z,55.90
2017-06-01T03:48:57.380Z,55.60
2017-06-01T03:51:24.832Z,55.90
2017-06-01T03:53:51.224Z,55.80
2017-06-01T03:56:18.074Z,55.90
2017-06-01T03:58:45.010Z,55.90
2017-06-01T04:01:11.686Z,55.90
2017-06-01T04:03:38.624Z,55.90
2017-06-01T04:06:05.542Z,55.90
2017-06-01T04:08:31.605Z,55.90
2017-06-01T04:10:59.267Z,56.00
2017-06-01T04:13:25.306Z,55.90
2017-06-01T04:15:53.167Z,55.90
2017-06-01T04:18:20.062Z,56.00
2017-06-01T04:20:48.126Z,56.00
2017-06-01T04:23:14.577Z,55.90
2017-06-01T04:25:41.406Z,56.00
2017-06-01T04:28:08.990Z,56.00
2017-06-01T04:30:35.861Z,56.00
2017-06-01T04:33:03.271Z,56.00
2017-06-01T04:35:30.938Z,56.10
2017-06-01T04:37:58.284Z,56.10
2017-06-01T04:40:25.052Z,56.00
2017-06-01T04:42:51.109Z,55.90
2017-06-01T04:45:17.323Z,56.10
2017-06-01T04:47:45.698Z,56.20
2017-06-01T04:50:12.585Z,56.10
2017-06-01T04:52:40.313Z,56.00
2017-06-01T04:55:07.221Z,56.10
2017-06-01T04:57:33.330Z,56.00
2017-06-01T05:00:00.373Z,56.10
2017-06-01T05:02:27.354Z,56.10
2017-06-01T05:04:54.824Z,56.00
2017-06-01T05:10:15.770Z,56.10
2017-06-01T05:12:43.403Z,56.10
2017-06-01T05:17:40.959Z,56.30
2017-06-01T05:20:07.925Z,56.10
2017-06-01T05:22:34.890Z,56.10
2017-06-01T05:25:01.703Z,56.00
2017-06-01T05:29:59.283Z,56.00
2017-06-01T05:32:26.905Z,55.90
2017-06-01T05:34:53.889Z,55.80
2017-06-01T05:37:20.704Z,55.80
2017-06-01T05:39:47.992Z,55.70
2017-06-01T05:42:15.769Z,55.70
2017-06-01T05:44:44.346Z,56.00
2017-06-01T05:47:10.437Z,55.70
2017-06-01T05:49:36.466Z,55.60
2017-06-01T05:52:03.259Z,55.40
2017-06-01T05:54:29.385Z,55.40
2017-06-01T05:56:56.903Z,55.10
2017-06-01T05:59:24.666Z,55.00
2017-06-01T06:01:51.438Z,54.80
2017-06-01T06:04:19.845Z,54.70
2017-06-01T06:06:48.553Z,54.60
2017-06-01T06:14:20.723Z,54.70
2017-06-01T06:19:19.256Z,54.70
2017-06-01T06:21:49.238Z,54.50
2017-06-01T06:24:16.168Z,54.50
2017-06-01T06:26:43.826Z,54.40
2017-06-01T06:29:10.038Z,54.40
2017-06-01T06:31:37.794Z,54.20
2017-06-01T06:34:05.770Z,54.20
2017-06-01T06:36:32.775Z,54.20
2017-06-01T06:38:59.621Z,54.10
2017-06-01T06:41:41.503Z,54.10
2017-06-01T06:44:10.216Z,54.10
2017-06-01T06:46:38.227Z,54.20
2017-06-01T06:49:05.692Z,54.20
2017-06-01T06:51:34.259Z,54.00
2017-06-01T06:54:01.734Z,54.10
2017-06-01T06:56:31.261Z,53.90
2017-06-01T06:58:59.583Z,53.90
2017-06-01T07:01:28.478Z,53.80
2017-06-01T07:03:55.883Z,53.80
2017-06-01T07:06:23.616Z,53.70
2017-06-01T07:08:50.749Z,53.50
2017-06-01T07:11:18.516Z,53.40
2017-06-01T07:13:48.650Z,53.30
2017-06-01T07:16:17.336Z,53.20
2017-06-01T07:24:01.074Z,52.80
2017-06-01T07:29:00.209Z,52.40
2017-06-01T07:31:26.299Z,52.20
2017-06-01T07:34:04.369Z,52.10
2017-06-01T07:36:31.354Z,51.50
2017-06-01T07:38:58.556Z,51.10
2017-06-01T07:41:25.595Z,51.00
2017-06-01T07:43:52.550Z,51.00
2017-06-01T07:46:19.454Z,50.80
2017-06-01T07:48:46.280Z,50.90
2017-06-01T07:51:17.677Z,50.70
2017-06-01T07:53:43.840Z,50.80
2017-06-01T07:56:11.528Z,50.40
2017-06-01T07:58:38.584Z,50.40
2017-06-01T08:01:18.166Z,50.40
2017-06-01T08:03:49.408Z,50.10
2017-06-01T08:06:16.129Z,50.10
2017-06-01T08:08:44.556Z,50.00
2017-06-01T08:11:11.471Z,49.60
2017-06-01T08:13:38.397Z,49.30
2017-06-01T08:16:05.249Z,49.40
2017-06-01T08:18:31.350Z,49.40
2017-06-01T08:20:59.381Z,49.20
2017-06-01T08:23:25.452Z,49.10
2017-06-01T08:25:52.293Z,49.10
2017-06-01T08:28:18.499Z,49.00
2017-06-01T08:30:45.523Z,49.00
2017-06-01T08:33:12.178Z,49.00
2017-06-01T08:35:39.661Z,48.90
2017-06-01T08:38:06.595Z,48.80
2017-06-01T08:43:29.577Z,48.40
2017-06-01T08:46:18.066Z,48.20
2017-06-01T08:48:46.125Z,48.00
2017-06-01T08:51:13.141Z,48.20
2017-06-01T08:53:39.977Z,47.10
2017-06-01T08:56:08.361Z,46.50
2017-06-01T08:58:34.566Z,46.40
2017-06-01T09:01:02.254Z,46.00
2017-06-01T09:03:28.602Z,46.00
2017-06-01T09:05:55.377Z,44.90
2017-06-01T09:11:17.173Z,44.50
2017-06-01T09:13:45.819Z,44.50
2017-06-01T09:16:15.581Z,44.50
2017-06-01T09:18:43.087Z,44.00
2017-06-01T09:21:10.133Z,43.40
2017-06-01T09:23:36.821Z,43.30
2017-06-01T09:26:03.643Z,43.40
2017-06-01T09:28:29.740Z,43.30
2017-06-01T09:45:19.050Z,42.80
2017-06-01T09:47:48.349Z,42.50
2017-06-01T09:50:17.656Z,42.20
2017-06-01T09:52:46.049Z,42.20
2017-06-01T09:55:14.778Z,42.00
2017-06-01T09:57:42.444Z,41.80
2017-06-01T10:00:09.857Z,41.30
2017-06-01T10:02:36.139Z,41.20
2017-06-01T10:05:03.026Z,40.40
2017-06-01T10:10:26.530Z,39.80
2017-06-01T10:12:57.492Z,39.20
2017-06-01T10:15:23.745Z,39.20
2017-06-01T10:17:50.794Z,39.00
2017-06-01T10:20:17.697Z,38.40
2017-06-01T10:22:44.943Z,38.40
2017-06-01T10:30:59.936Z,37.60
2017-06-01T10:33:26.929Z,37.30
2017-06-01T10:35:53.803Z,37.40
2017-06-01T10:38:19.922Z,37.20
2017-06-01T10:40:46.026Z,37.30
2017-06-01T10:43:13.508Z,36.60
2017-06-01T10:45:40.821Z,36.50
2017-06-01T10:48:08.260Z,36.20
2017-06-01T10:50:35.317Z,35.80
2017-06-01T10:53:02.964Z,35.80
2017-06-01T10:55:29.004Z,35.70
2017-06-01T10:57:55.490Z,35.30
2017-06-01T11:11:56.036Z,34.30
2017-06-01T11:16:53.793Z,34.00
2017-06-01T11:19:24.359Z,33.50
2017-06-01T11:21:51.567Z,33.00
2017-06-01T11:24:19.973Z,32.90
2017-06-01T11:29:18.479Z,32.70
2017-06-01T11:34:28.817Z,31.90
2017-06-01T11:39:26.308Z,30.00
2017-06-01T11:41:52.615Z,30.60
2017-06-01T11:44:19.488Z,30.90
2017-06-01T11:46:45.717Z,30.90
2017-06-01T11:49:14.609Z,30.70
2017-06-01T11:51:40.708Z,30.60
2017-06-01T11:54:12.552Z,30.20
2017-06-01T11:56:38.688Z,30.20
2017-06-01T11:59:05.660Z,30.00
2017-06-01T12:01:33.801Z,29.30
2017-06-01T12:04:00.034Z,29.30
2017-06-01T12:06:26.169Z,28.90
2017-06-01T12:08:53.037Z,27.80
2017-06-01T12:11:19.226Z,27.80
2017-06-01T12:14:02.771Z,27.90
2017-06-01T12:16:29.786Z,27.10
2017-06-01T12:18:57.528Z,27.00
2017-06-01T12:21:24.936Z,26.40
2017-06-01T12:23:52.607Z,26.00
2017-06-01T12:26:19.430Z,25.70
2017-06-01T12:28:46.383Z,25.90
2017-06-01T12:31:13.148Z,26.00
2017-06-01T12:33:43.788Z,26.40
2017-06-01T12:36:12.052Z,26.60
2017-06-01T12:41:11.172Z,26.60
2017-06-01T12:43:37.927Z,26.60
2017-06-01T12:46:05.530Z,26.00
2017-06-01T12:48:32.753Z,25.40
2017-06-01T12:51:00.094Z,25.10
2017-06-01T12:53:28.437Z,25.50
2017-06-01T12:58:40.195Z,25.40
2017-06-01T13:01:09.280Z,24.90
2017-06-01T13:03:36.997Z,24.70
2017-06-01T13:11:07.948Z,23.90
2017-06-01T13:13:35.451Z,23.30
2017-06-01T13:23:40.310Z,22.90
2017-06-01T13:26:07.493Z,22.50
2017-06-01T13:28:33.784Z,22.40
2017-06-01T13:31:00.733Z,22.10
2017-06-01T13:33:27.526Z,22.30
2017-06-01T13:35:54.406Z,22.40
2017-06-01T13:38:24.634Z,22.40
2017-06-01T13:40:51.468Z,22.50
2017-06-01T13:43:20.789Z,22.30
2017-06-01T13:45:47.680Z,22.30
2017-06-01T13:48:16.888Z,21.90
2017-06-01T13:50:44.377Z,21.80
2017-06-01T13:53:27.895Z,21.60
2017-06-01T13:55:55.515Z,22.30
2017-06-01T13:58:21.858Z,22.10
2017-06-01T14:00:49.056Z,23.40
2017-06-01T14:03:16.695Z,23.30
2017-06-01T14:05:45.344Z,23.60
2017-06-01T14:10:45.428Z,22.90
2017-06-01T14:13:13.872Z,22.30
2017-06-01T14:15:40.817Z,22.20
2017-06-01T14:18:09.685Z,21.50
2017-06-01T14:20:36.779Z,20.70
2017-06-01T14:23:05.268Z,20.00
2017-06-01T14:25:32.945Z,20.20
2017-06-01T14:28:00.448Z,20.80
2017-06-01T14:30:29.266Z,21.20
2017-06-01T14:33:34.604Z,21.70
2017-06-01T14:36:00.831Z,21.60
2017-06-01T14:38:29.102Z,22.40
2017-06-01T14:40:55.949Z,22.60
2017-06-01T14:43:24.325Z,23.00
2017-06-01T14:45:51.474Z,23.20
2017-06-01T14:48:17.700Z,23.20
2017-06-01T14:50:45.577Z,23.80
2017-06-01T14:58:20.714Z,24.20
2017-06-01T15:00:47.854Z,23.80
2017-06-01T15:03:17.044Z,23.30
2017-06-01T15:08:19.579Z,23.70
2017-06-01T15:10:54.733Z,24.00
2017-06-01T15:13:22.952Z,24.20
2017-06-01T15:15:52.530Z,24.60
2017-06-01T15:20:50.164Z,25.00
2017-06-01T15:23:19.258Z,25.60
2017-06-01T15:28:25.338Z,26.00
2017-06-01T15:36:09.601Z,26.60
2017-06-01T15:41:13.822Z,26.60
2017-06-01T15:43:40.662Z,26.80
2017-06-01T15:46:08.302Z,26.80
2017-06-01T15:48:34.569Z,26.80
2017-06-01T15:51:00.657Z,27.00
2017-06-01T15:53:27.434Z,27.40
2017-06-01T15:55:53.687Z,27.20
2017-06-01T15:58:20.104Z,26.80
2017-06-01T16:00:47.753Z,25.50
2017-06-01T16:03:16.360Z,25.20
2017-06-01T16:05:44.911Z,25.00
2017-06-01T16:13:16.951Z,23.90
2017-06-01T16:15:43.168Z,23.20
2017-06-01T16:18:10.931Z,22.40
2017-06-01T16:20:39.491Z,22.40
2017-06-01T16:23:06.447Z,22.30
2017-06-01T16:25:35.018Z,22.50
2017-06-01T16:28:02.286Z,21.80
2017-06-01T16:33:03.473Z,21.60
2017-06-01T16:35:33.421Z,21.50
2017-06-01T16:38:00.391Z,22.00
2017-06-01T16:40:27.646Z,22.50
2017-06-01T16:42:54.718Z,22.40
2017-06-01T16:45:22.525Z,22.10
2017-06-01T16:50:32.887Z,21.70
2017-06-01T16:53:01.919Z,21.30
2017-06-01T16:55:31.536Z,21.20
2017-06-01T16:57:57.932Z,21.00
2017-06-01T17:02:56.561Z,21.10
2017-06-01T17:05:24.845Z,21.90
2017-06-01T17:07:55.766Z,21.80
2017-06-01T17:12:53.567Z,21.50
2017-06-01T17:15:23.856Z,21.50
2017-06-01T17:20:26.242Z,21.70
2017-06-01T17:22:54.035Z,21.70
2017-06-01T17:25:24.292Z,21.40
2017-06-01T17:27:54.525Z,21.60
2017-06-01T17:32:54.511Z,21.50
2017-06-01T17:35:22.929Z,22.00
2017-06-01T17:40:22.605Z,22.10
2017-06-01T17:42:48.993Z,22.20
2017-06-01T17:47:54.228Z,22.30
2017-06-01T17:50:22.716Z,22.20
2017-06-01T17:55:44.161Z,22.80
2017-06-01T18:10:52.624Z,23.30
2017-06-01T18:13:19.654Z,23.40
2017-06-01T18:23:12.749Z,23.80
2017-06-01T18:28:12.246Z,24.00
2017-06-01T18:30:39.577Z,24.50
2017-06-01T18:33:06.539Z,24.70
2017-06-01T18:35:33.968Z,24.90
2017-06-01T18:38:01.038Z,25.10
2017-06-01T18:40:27.896Z,25.10
2017-06-01T18:42:55.028Z,25.60
2017-06-01T18:45:25.530Z,25.90
2017-06-01T18:47:54.266Z,25.90
2017-06-01T18:52:52.049Z,26.50
2017-06-01T18:55:19.341Z,27.40
2017-06-01T18:57:46.719Z,27.60
2017-06-01T19:00:14.092Z,28.00
2017-06-01T19:02:41.530Z,28.00
2017-06-01T19:05:08.813Z,28.30
2017-06-01T19:10:10.176Z,29.10
2017-06-01T19:15:08.975Z,29.10
2017-06-01T19:17:35.884Z,29.70
2017-06-01T19:20:06.662Z,30.00
2017-06-01T19:22:34.197Z,30.10
2017-06-01T19:25:01.690Z,30.10
2017-06-01T19:27:29.692Z,30.40
2017-06-01T19:29:56.198Z,30.70
2017-06-01T19:32:26.147Z,31.00
2017-06-01T19:34:58.464Z,31.60
2017-06-01T19:40:04.419Z,32.30
2017-06-01T19:42:32.514Z,32.80
2017-06-01T19:44:59.255Z,33.30
2017-06-01T19:47:25.958Z,33.90
2017-06-01T19:49:51.935Z,33.90
2017-06-01T19:52:17.997Z,34.40
2017-06-01T19:54:45.754Z,35.20
2017-06-01T19:57:12.531Z,35.60
2017-06-01T19:59:38.531Z,35.50
2017-06-01T20:02:05.251Z,36.20
2017-06-01T20:04:33.791Z,36.60
2017-06-01T20:15:32.194Z,37.90
2017-06-01T20:23:28.585Z,38.40
2017-06-01T20:26:04.068Z,38.40
2017-06-01T20:39:46.863Z,38.80
2017-06-01T20:42:17.046Z,39.00
2017-06-01T20:47:24.096Z,39.30
2017-06-01T20:52:31.682Z,39.40
2017-06-01T21:01:14.876Z,39.60
2017-06-01T21:03:46.184Z,40.40
2017-06-01T21:11:43.836Z,41.10
2017-06-01T21:14:14.488Z,41.30
2017-06-01T21:22:10.985Z,41.80
2017-06-01T21:27:28.222Z,41.70
2017-06-01T21:40:26.053Z,43.00
2017-06-01T21:42:53.959Z,43.00
2017-06-01T21:45:23.748Z,43.30
2017-06-01T21:50:21.871Z,43.40
2017-06-01T22:00:35.255Z,43.60
2017-06-01T22:03:03.595Z,44.20
2017-06-01T22:05:33.885Z,44.20
2017-06-01T22:10:37.351Z,44.60
2017-06-01T22:13:08.268Z,44.70
2017-06-01T22:15:37.796Z,45.00
2017-06-01T22:18:04.618Z,45.20
2017-06-01T22:20:40.685Z,45.30
2017-06-01T22:28:14.840Z,45.30
2017-06-01T22:30:44.987Z,45.60
2017-06-01T22:33:15.581Z,46.10
2017-06-01T22:35:43.066Z,46.00
2017-06-01T22:38:16.979Z,46.60
2017-06-01T22:40:46.633Z,47.30
2017-06-01T22:43:16.126Z,46.70
2017-06-01T22:45:46.621Z,47.10
2017-06-01T22:53:26.274Z,47.40
2017-06-01T22:55:56.353Z,47.60
2017-06-01T22:58:27.229Z,48.00
2017-06-01T23:01:04.548Z,47.90
2017-06-01T23:03:35.086Z,48.30
2017-06-01T23:06:01.873Z,48.40
2017-06-01T23:08:28.617Z,48.40
2017-06-01T23:10:55.400Z,49.20
2017-06-01T23:13:22.214Z,48.70
2017-06-01T23:15:48.985Z,48.70
2017-06-01T23:18:15.823Z,48.90
2017-06-01T23:20:42.631Z,48.90
2017-06-01T23:23:09.451Z,48.90
2017-06-01T23:25:36.207Z,48.90
2017-06-01T23:28:02.933Z,49.00
2017-06-01T23:30:28.994Z,49.00
2017-06-01T23:32:55.809Z,49.00
2017-06-01T23:35:23.273Z,49.60
2017-06-01T23:37:49.404Z,49.00
2017-06-01T23:40:16.189Z,49.00
2017-06-01T23:42:42.950Z,49.00
2017-06-01T23:45:09.792Z,49.10
2017-06-01T23:47:36.680Z,49.10
2017-06-01T23:50:04.236Z,49.30
2017-06-01T23:52:30.941Z,49.20
2017-06-01T23:54:58.785Z,49.30
2017-06-01T23:57:25.493Z,49.40
2017-06-01T23:59:52.222Z,49.50
